Time;durP1;ratioP1;P1;durP2;ratioP2;P2;SDS_P1;SDS_P2;PMS_P1;PMS_P2;Temp;Humidity;BMP_temperature;BMP_pressure;BME280_temperature;BME280_humidity;BME280_pressure;Samples;Min_cycle;Max_cycle;Signal;HPM_P1;HPM_P2
2021/06/08 00:00:50;;;;;;;8.03;7.27;;;;;14.80;101803.00;;;;10498406;28;20187;-77
2021/06/08 00:05:51;;;;;;;10.80;8.20;;;;;14.90;101797.00;;;;10515658;28;20193;-78
2021/06/08 00:10:53;;;;;;;10.50;8.40;;;;;14.90;101798.00;;;;10513752;28;20213;-78
2021/06/08 00:15:55;;;;;;;10.03;8.37;;;;;14.80;101814.00;;;;10498403;28;20192;-78
2021/06/08 00:20:58;;;;;;;8.90;8.00;;;;;14.70;101800.00;;;;10532223;28;20181;-79
2021/06/08 00:26:00;;;;;;;9.87;7.63;;;;;14.60;101813.00;;;;10481260;28;20533;-79
2021/06/08 00:31:02;;;;;;;9.60;8.70;;;;;14.50;101814.00;;;;10498641;28;20691;-78
2021/06/08 00:36:04;;;;;;;10.83;9.50;;;;;14.50;101816.00;;;;10514138;28;20221;-79
2021/06/08 00:41:06;;;;;;;9.50;8.53;;;;;14.40;101812.00;;;;10480505;28;20283;-79
2021/06/08 00:46:08;;;;;;;9.40;8.50;;;;;14.30;101817.00;;;;10498650;28;20703;-77
2021/06/08 00:51:10;;;;;;;11.73;10.13;;;;;14.20;101816.00;;;;10514532;28;20217;-79
2021/06/08 00:56:12;;;;;;;11.53;9.07;;;;;14.20;101811.00;;;;10490533;28;20201;-79
2021/06/08 01:01:14;;;;;;;11.80;8.53;;;;;14.10;101817.00;;;;10488768;28;20193;-79
2021/06/08 01:06:16;;;;;;;11.53;8.50;;;;;14.00;101811.00;;;;10452610;28;20190;-78
2021/06/08 01:11:18;;;;;;;10.50;9.40;;;;;13.90;101815.00;;;;10475562;28;20216;-79
2021/06/08 01:16:20;;;;;;;9.27;7.73;;;;;13.90;101821.00;;;;10443429;28;20206;-79
2021/06/08 01:21:22;;;;;;;10.40;8.43;;;;;13.80;101816.00;;;;10492668;28;20249;-78
2021/06/08 01:26:26;;;;;;;11.13;8.97;;;;;13.70;101822.00;;;;10482329;28;20204;-79
2021/06/08 01:31:30;;;;;;;10.47;8.93;;;;;13.60;101822.00;;;;10533613;28;20201;-79
2021/06/08 01:36:38;;;;;;;11.67;10.50;;;;;13.60;101820.00;;;;10476116;28;20205;-79
2021/06/08 01:41:40;;;;;;;12.70;10.73;;;;;13.60;101820.00;;;;10443101;28;20186;-79
2021/06/08 01:46:42;;;;;;;14.30;10.50;;;;;13.60;101823.00;;;;10442624;28;20651;-79
2021/06/08 01:51:56;;;;;;;14.63;11.67;;;;;13.60;101822.00;;;;10475891;28;20259;-80
2021/06/08 01:57:10;;;;;;;13.43;10.97;;;;;13.60;101820.00;;;;10522775;28;20197;-79
2021/06/08 02:02:50;;;;;;;13.47;12.07;;;;;13.50;101811.00;;;;10460143;28;20193;-80
2021/06/08 02:07:52;;;;;;;15.70;12.63;;;;;13.40;101813.00;;;;10492268;28;20235;-79
2021/06/08 02:13:06;;;;;;;16.97;12.97;;;;;13.40;101814.00;;;;10492960;28;20217;-79
2021/06/08 02:18:10;;;;;;;16.37;14.27;;;;;13.40;101815.00;;;;10458503;28;20193;-80
2021/06/08 02:23:15;;;;;;;14.77;13.17;;;;;13.30;101807.00;;;;10442065;28;20217;-79
2021/06/08 02:28:20;;;;;;;17.43;14.97;;;;;13.30;101815.00;;;;10449996;28;20246;-79
2021/06/08 02:33:24;;;;;;;17.67;14.83;;;;;13.30;101810.00;;;;10532909;28;20295;-79
2021/06/08 02:38:27;;;;;;;14.00;11.83;;;;;13.20;101818.00;;;;10497546;28;20220;-79
2021/06/08 02:43:32;;;;;;;17.60;13.00;;;;;13.10;101819.00;;;;10513067;28;20212;-79
2021/06/08 02:48:36;;;;;;;16.07;14.47;;;;;13.10;101821.00;;;;10513654;28;20196;-78
2021/06/08 02:53:41;;;;;;;15.67;14.17;;;;;13.00;101816.00;;;;10514093;28;20208;-79
2021/06/08 02:58:44;;;;;;;16.90;12.30;;;;;13.00;101824.00;;;;10467074;28;20202;-79
2021/06/08 03:03:50;;;;;;;13.33;12.07;;;;;12.90;101817.00;;;;10454383;28;20225;-80
2021/06/08 03:09:00;;;;;;;15.43;12.17;;;;;12.80;101814.00;;;;10470879;28;20185;-80
2021/06/08 03:14:05;;;;;;;12.57;11.23;;;;;12.70;101812.00;;;;10470479;28;20190;-78
2021/06/08 03:19:09;;;;;;;16.00;12.03;;;;;12.70;101818.00;;;;10470143;28;20194;-79
2021/06/08 03:24:15;;;;;;;14.50;12.47;;;;;12.60;101823.00;;;;10470506;28;20726;-80
2021/06/08 03:29:19;;;;;;;14.20;12.73;;;;;12.70;101823.00;;;;10453452;28;20649;-80
2021/06/08 03:38:32;;;;;;;13.33;11.77;;;;;12.70;101815.00;;;;10575761;27;21045;-78
2021/06/08 03:43:36;;;;;;;14.30;12.90;;;;;12.70;101817.00;;;;10507428;28;20583;-78
2021/06/08 03:48:39;;;;;;;15.83;13.80;;;;;12.80;101819.00;;;;10523859;28;20595;-77
2021/06/08 03:53:40;;;;;;;15.57;13.47;;;;;12.90;101827.00;;;;10525507;28;20209;-78
2021/06/08 03:58:43;;;;;;;16.33;14.67;;;;;13.00;101822.00;;;;10535478;28;20219;-78
2021/06/08 04:03:47;;;;;;;17.17;14.37;;;;;13.00;101819.00;;;;10523528;28;20254;-78
2021/06/08 04:08:48;;;;;;;15.43;13.83;;;;;13.20;101820.00;;;;10507331;28;20548;-78
2021/06/08 04:13:55;;;;;;;15.90;14.10;;;;;13.40;101821.00;;;;10507039;28;20209;-79
2021/06/08 04:18:57;;;;;;;15.47;13.03;;;;;13.60;101818.00;;;;10488797;28;20792;-78
2021/06/08 04:24:01;;;;;;;14.20;12.67;;;;;13.70;101814.00;;;;10527786;28;20204;-78
2021/06/08 04:29:03;;;;;;;16.43;13.60;;;;;13.80;101808.00;;;;10563276;28;20243;-79
2021/06/08 04:34:05;;;;;;;15.03;12.93;;;;;13.90;101819.00;;;;10521664;28;20221;-78
2021/06/08 04:39:07;;;;;;;17.80;13.53;;;;;14.00;101815.00;;;;10522387;28;20244;-78
2021/06/08 04:44:15;;;;;;;15.00;13.30;;;;;14.20;101823.00;;;;10539999;28;20252;-78
2021/06/08 04:49:17;;;;;;;17.70;14.47;;;;;14.40;101825.00;;;;10497121;28;20194;-79
2021/06/08 04:54:23;;;;;;;16.80;14.07;;;;;14.70;101827.00;;;;10511081;28;20668;-78
2021/06/08 04:59:43;;;;;;;14.63;13.10;;;;;15.00;101834.00;;;;10492808;28;20280;-78
2021/06/08 05:04:45;;;;;;;15.43;13.80;;;;;15.50;101836.00;;;;10451219;28;20207;-78
2021/06/08 05:09:50;;;;;;;13.50;12.10;;;;;15.90;101841.00;;;;10451719;28;20208;-79
2021/06/08 05:14:55;;;;;;;12.53;11.23;;;;;16.30;101847.00;;;;10446887;28;20217;-79
2021/06/08 05:19:58;;;;;;;15.07;11.13;;;;;16.80;101850.00;;;;10474184;28;20225;-79
2021/06/08 05:25:00;;;;;;;13.30;11.23;;;;;17.20;101857.00;;;;10461952;28;20198;-79
2021/06/08 05:30:03;;;;;;;12.40;11.13;;;;;17.70;101860.00;;;;10485445;28;20198;-79
2021/06/08 05:35:08;;;;;;;12.23;11.03;;;;;18.30;101854.00;;;;10472903;28;20217;-79
2021/06/08 05:40:11;;;;;;;13.37;11.60;;;;;19.00;101852.00;;;;10456660;28;20649;-79
2021/06/08 05:45:13;;;;;;;11.85;10.57;;;;;19.70;101858.00;;;;10472518;28;20193;-79
2021/06/08 05:50:16;;;;;;;13.07;10.75;;;;;20.10;101858.00;;;;10489796;28;20250;-79
2021/06/08 05:55:18;;;;;;;12.93;11.20;;;;;20.50;101862.00;;;;10489238;28;20218;-79
2021/06/08 06:00:21;;;;;;;12.60;11.30;;;;;20.90;101865.00;;;;10488446;28;20258;-79
2021/06/08 06:05:24;;;;;;;12.60;11.05;;;;;21.40;101856.00;;;;10488708;28;20196;-78
2021/06/08 06:10:26;;;;;;;13.07;11.15;;;;;21.80;101852.00;;;;10496083;28;20554;-79
2021/06/08 06:15:30;;;;;;;13.68;10.75;;;;;22.10;101847.00;;;;10456305;28;20213;-79
2021/06/08 06:20:32;;;;;;;12.55;10.57;;;;;22.20;101852.00;;;;10489487;28;20719;-79
2021/06/08 06:25:34;;;;;;;12.00;10.80;;;;;22.30;101849.00;;;;10429261;28;20186;-79
2021/06/08 06:30:37;;;;;;;12.27;10.88;;;;;22.30;101852.00;;;;10454198;28;20193;-79
2021/06/08 06:35:39;;;;;;;11.80;10.73;;;;;22.50;101850.00;;;;10474174;28;20241;-79
2021/06/08 06:40:42;;;;;;;12.18;10.65;;;;;22.80;101852.00;;;;10444153;28;20209;-79
2021/06/08 06:45:53;;;;;;;13.50;11.88;;;;;23.30;101847.00;;;;10472351;28;20193;-79
2021/06/08 06:50:56;;;;;;;13.23;10.85;;;;;23.90;101840.00;;;;10446767;28;20661;-79
2021/06/08 06:55:58;;;;;;;12.95;11.55;;;;;24.60;101829.00;;;;10429410;28;20293;-79
2021/06/08 07:01:01;;;;;;;13.43;10.52;;;;;25.20;101827.00;;;;10449999;28;20196;-79
2021/06/08 07:06:04;;;;;;;12.45;10.77;;;;;25.70;101819.00;;;;10486624;28;20201;-79
2021/06/08 07:11:07;;;;;;;12.98;11.68;;;;;26.20;101823.00;;;;10453405;28;20262;-79
2021/06/08 07:16:10;;;;;;;12.57;10.68;;;;;26.50;101815.00;;;;10487642;28;20542;-79
2021/06/08 07:21:14;;;;;;;15.75;10.80;;;;;26.80;101803.00;;;;10471151;28;20201;-79
2021/06/08 07:26:18;;;;;;;14.73;10.80;;;;;27.10;101807.00;;;;10462160;28;20252;-79
2021/06/08 07:31:33;;;;;;;12.90;10.65;;;;;27.20;101810.00;;;;10470041;28;20530;-79
2021/06/08 07:36:47;;;;;;;13.85;11.73;;;;;27.40;101797.00;;;;10485247;28;20215;-80
2021/06/08 07:42:15;;;;;;;9.80;8.82;;;;;27.90;101792.00;;;;10468679;28;20641;-79
2021/06/08 07:47:19;;;;;;;10.52;8.27;;;;;27.50;101790.00;;;;10482913;28;20194;-79
2021/06/08 07:52:23;;;;;;;10.43;8.02;;;;;27.20;101798.00;;;;10466460;28;20200;-79
2021/06/08 07:57:26;;;;;;;8.88;7.78;;;;;27.70;101798.00;;;;10469313;28;20220;-79
2021/06/08 08:02:46;;;;;;;7.95;7.15;;;;;28.00;101800.00;;;;10476060;28;20242;-79
2021/06/08 08:07:49;;;;;;;9.73;8.73;;;;;28.30;101794.00;;;;10484526;28;20197;-79
2021/06/08 08:12:53;;;;;;;8.02;7.30;;;;;28.20;101797.00;;;;10483479;28;20197;-79
2021/06/08 08:17:55;;;;;;;8.20;7.43;;;;;28.20;101797.00;;;;10466170;28;20206;-79
2021/06/08 08:22:57;;;;;;;8.23;7.40;;;;;28.50;101794.00;;;;10476611;28;20190;-79
2021/06/08 08:27:59;;;;;;;8.90;8.00;;;;;29.00;101783.00;;;;10434153;28;20191;-79
2021/06/08 08:33:03;;;;;;;9.38;8.50;;;;;29.70;101790.00;;;;10444353;28;20214;-79
2021/06/08 08:38:06;;;;;;;8.65;7.85;;;;;30.10;101795.00;;;;10481693;28;20263;-79
2021/06/08 08:43:08;;;;;;;9.45;8.43;;;;;29.60;101774.00;;;;10448155;28;20264;-79
2021/06/08 08:48:12;;;;;;;11.45;8.48;;;;;29.60;101777.00;;;;10474142;28;20522;-79
2021/06/08 08:53:16;;;;;;;9.52;7.63;;;;;30.00;101772.00;;;;10480368;28;20218;-79
2021/06/08 08:58:18;;;;;;;10.40;9.40;;;;;30.30;101770.00;;;;10489152;28;20695;-79
2021/06/08 09:03:20;;;;;;;9.82;7.72;;;;;30.30;101769.00;;;;10507544;28;20185;-79
2021/06/08 09:08:23;;;;;;;10.50;9.40;;;;;30.70;101774.00;;;;10506175;28;20198;-79
2021/06/08 09:13:26;;;;;;;12.25;8.30;;;;;31.10;101763.00;;;;10486836;28;20216;-79
2021/06/08 09:18:28;;;;;;;9.60;8.38;;;;;31.60;101758.00;;;;10463724;28;20186;-79
2021/06/08 09:23:30;;;;;;;8.20;7.43;;;;;30.30;101767.00;;;;10457481;28;20197;-79
2021/06/08 09:28:34;;;;;;;10.10;8.55;;;;;29.80;101763.00;;;;10474829;28;20267;-78
2021/06/08 09:33:45;;;;;;;7.90;6.90;;;;;30.90;101753.00;;;;10497538;28;20241;-79
2021/06/08 09:39:16;;;;;;;7.43;5.90;;;;;31.60;101753.00;;;;10447598;28;20197;-79
2021/06/08 09:44:20;;;;;;;7.97;5.35;;;;;31.50;101754.00;;;;10486218;28;20197;-79
2021/06/08 09:49:30;;;;;;;9.00;8.02;;;;;31.90;101754.00;;;;10469771;28;20201;-79
2021/06/08 09:54:40;;;;;;;8.82;7.65;;;;;28.80;101757.00;;;;10455963;28;20738;-79
2021/06/08 09:59:46;;;;;;;9.00;7.70;;;;;29.20;101747.00;;;;10505664;28;20197;-79
2021/06/08 10:04:49;;;;;;;8.90;8.05;;;;;30.50;101748.00;;;;10447817;28;20206;-80
2021/06/08 10:10:05;;;;;;;7.80;7.10;;;;;31.60;101750.00;;;;10474886;28;20281;-79
2021/06/08 10:15:10;;;;;;;7.88;7.07;;;;;32.00;101758.00;;;;10436522;28;20194;-79
2021/06/08 10:20:23;;;;;;;7.63;6.90;;;;;32.20;101746.00;;;;10448300;28;20210;-81
2021/06/08 10:25:25;;;;;;;8.18;7.05;;;;;32.30;101745.00;;;;10432889;28;20213;-80
2021/06/08 10:30:27;;;;;;;9.68;7.22;;;;;32.70;101747.00;;;;10494180;28;20204;-80
2021/06/08 10:35:29;;;;;;;7.05;6.25;;;;;32.70;101746.00;;;;10485162;28;20333;-80
2021/06/08 10:40:32;;;;;;;6.93;6.22;;;;;33.00;101743.00;;;;10449717;28;20199;-79
2021/06/08 10:45:37;;;;;;;6.72;6.00;;;;;33.40;101736.00;;;;10486285;28;20609;-80
2021/06/08 10:50:44;;;;;;;7.38;6.68;;;;;33.80;101748.00;;;;10501786;28;20671;-81
2021/06/08 10:55:46;;;;;;;8.02;7.22;;;;;31.00;101744.00;;;;10454289;28;20193;-80
2021/06/08 11:00:52;;;;;;;9.13;7.57;;;;;31.20;101736.00;;;;10478562;28;20198;-80
2021/06/08 11:05:57;;;;;;;7.85;7.05;;;;;32.50;101734.00;;;;10483368;28;20217;-80
2021/06/08 11:10:59;;;;;;;7.57;6.90;;;;;33.20;101731.00;;;;10444693;28;20198;-79
2021/06/08 11:16:31;;;;;;;9.05;5.97;;;;;33.80;101736.00;;;;10413018;28;20194;-80
2021/06/08 11:21:34;;;;;;;7.30;6.00;;;;;31.70;101740.00;;;;10426390;28;20229;-80
2021/06/08 11:26:50;;;;;;;9.07;6.40;;;;;30.00;101735.00;;;;10451097;28;20226;-80
2021/06/08 11:31:51;;;;;;;7.97;5.80;;;;;29.10;101729.00;;;;10456537;28;20232;-80
2021/06/08 11:36:53;;;;;;;8.43;5.95;;;;;29.30;101740.00;;;;10431505;28;20209;-80
2021/06/08 11:42:04;;;;;;;6.85;5.60;;;;;30.70;101732.00;;;;10460484;28;20517;-80
2021/06/08 11:47:06;;;;;;;7.07;6.15;;;;;33.50;101732.00;;;;10471431;28;20202;-81
2021/06/08 11:52:12;;;;;;;10.15;6.22;;;;;33.90;101726.00;;;;10473025;28;20220;-81
2021/06/08 11:57:40;;;;;;;8.32;6.85;;;;;32.90;101730.00;;;;10447805;28;20251;-81
2021/06/08 12:02:48;;;;;;;11.05;7.82;;;;;32.60;101733.00;;;;10491730;28;20212;-80
2021/06/08 12:07:52;;;;;;;7.20;6.47;;;;;33.20;101722.00;;;;10476857;28;20264;-81
2021/06/08 12:12:55;;;;;;;8.10;7.30;;;;;33.20;101721.00;;;;10465972;28;20252;-80
2021/06/08 12:18:00;;;;;;;7.82;7.13;;;;;33.30;101716.00;;;;10418050;28;20565;-79
2021/06/08 12:23:02;;;;;;;6.22;5.63;;;;;33.50;101713.00;;;;10449038;28;20201;-81
2021/06/08 12:28:11;;;;;;;7.97;7.28;;;;;33.00;101723.00;;;;10431474;28;20214;-81
2021/06/08 12:33:15;;;;;;;7.90;6.85;;;;;30.90;101727.00;;;;10432875;28;20222;-80
2021/06/08 12:38:22;;;;;;;7.70;6.35;;;;;29.60;101724.00;;;;10466573;28;20225;-80
2021/06/08 12:43:24;;;;;;;8.50;7.63;;;;;29.00;101725.00;;;;10450873;28;20212;-80
2021/06/08 12:48:26;;;;;;;7.22;6.03;;;;;30.20;101718.00;;;;10450942;28;20210;-81
2021/06/08 12:53:28;;;;;;;9.38;7.30;;;;;31.50;101711.00;;;;10467686;28;20549;-81
2021/06/08 12:58:34;;;;;;;8.45;6.10;;;;;32.30;101706.00;;;;10459462;28;20201;-81
2021/06/08 13:03:46;;;;;;;5.88;4.65;;;;;32.90;101705.00;;;;10491044;28;20272;-81
2021/06/08 13:08:49;;;;;;;6.55;5.30;;;;;31.30;101696.00;;;;10490863;28;20267;-80
2021/06/08 13:13:52;;;;;;;6.68;5.00;;;;;32.20;101693.00;;;;10456106;28;20255;-79
2021/06/08 13:18:54;;;;;;;9.15;5.82;;;;;33.30;101690.00;;;;10448155;28;20194;-80
2021/06/08 13:24:21;;;;;;;6.57;3.97;;;;;32.70;101692.00;;;;10431783;28;20197;-80
2021/06/08 13:29:25;;;;;;;4.95;4.45;;;;;30.00;101686.00;;;;10461405;28;20209;-80
2021/06/08 13:34:30;;;;;;;7.72;4.97;;;;;28.50;101690.00;;;;10454598;28;20935;-81
2021/06/08 13:39:42;;;;;;;8.45;4.80;;;;;27.80;101686.00;;;;10450070;28;20197;-80
2021/06/08 13:45:05;;;;;;;5.07;4.68;;;;;27.50;101680.00;;;;10466785;28;20197;-80
2021/06/08 13:50:21;;;;;;;9.57;4.47;;;;;27.50;101680.00;;;;10449441;28;20271;-80
2021/06/08 13:55:23;;;;;;;5.22;4.72;;;;;27.70;101675.00;;;;10450057;28;20197;-80
2021/06/08 14:00:25;;;;;;;4.28;3.95;;;;;28.10;101676.00;;;;10431401;28;20203;-80
2021/06/08 14:05:35;;;;;;;5.53;4.32;;;;;29.30;101664.00;;;;10417056;28;20217;-80
2021/06/08 14:10:37;;;;;;;4.57;4.18;;;;;34.20;101671.00;;;;10449364;28;20202;-80
2021/06/08 14:15:58;;;;;;;5.45;4.95;;;;;31.70;101678.00;;;;10448308;28;20198;-80
2021/06/08 14:21:01;;;;;;;4.47;3.47;;;;;36.20;101661.00;;;;10414265;28;20186;-81
2021/06/08 14:26:13;;;;;;;5.05;4.55;;;;;38.50;101665.00;;;;10456416;28;20212;-81
2021/06/08 14:31:15;;;;;;;5.50;4.05;;;;;39.00;101658.00;;;;10481742;28;20536;-81
2021/06/08 14:36:17;;;;;;;6.40;4.35;;;;;34.10;101662.00;;;;10486748;28;20205;-80
2021/06/08 14:41:19;;;;;;;6.97;4.00;;;;;37.20;101645.00;;;;10471830;28;20196;-80
2021/06/08 14:46:22;;;;;;;4.72;3.63;;;;;39.60;101637.00;;;;10461670;28;20263;-80
2021/06/08 14:51:24;;;;;;;5.25;3.60;;;;;39.50;101632.00;;;;10462506;28;20291;-80
2021/06/08 14:56:26;;;;;;;3.67;3.33;;;;;39.10;101640.00;;;;10444613;28;20289;-80
2021/06/08 15:01:28;;;;;;;5.75;3.83;;;;;39.20;101637.00;;;;10466177;28;20189;-81
2021/06/08 15:06:30;;;;;;;3.60;3.30;;;;;39.40;101640.00;;;;10486626;28;20202;-80
2021/06/08 15:11:32;;;;;;;7.80;3.83;;;;;38.80;101631.00;;;;10486724;28;20234;-80
2021/06/08 15:16:35;;;;;;;3.88;3.47;;;;;37.50;101630.00;;;;10501804;28;20276;-80
2021/06/08 15:21:37;;;;;;;6.78;3.97;;;;;36.80;101627.00;;;;10471396;28;20190;-80
2021/06/08 15:26:39;;;;;;;4.00;3.70;;;;;37.10;101629.00;;;;10459487;28;20760;-80
2021/06/08 15:31:41;;;;;;;5.63;4.55;;;;;37.70;101621.00;;;;10440677;28;20220;-80
2021/06/08 15:36:43;;;;;;;6.40;4.95;;;;;34.10;101631.00;;;;10466366;28;20194;-80
2021/06/08 15:41:45;;;;;;;5.50;4.97;;;;;33.00;101627.00;;;;10467138;28;20260;-80
2021/06/08 15:46:47;;;;;;;7.05;4.75;;;;;30.90;101627.00;;;;10442397;28;20244;-80
2021/06/08 15:51:49;;;;;;;6.90;4.90;;;;;30.10;101621.00;;;;10426409;28;20202;-80
2021/06/08 15:56:51;;;;;;;7.65;4.78;;;;;29.70;101621.00;;;;10489002;28;20631;-80
2021/06/08 16:01:53;;;;;;;7.07;6.38;;;;;29.60;101618.00;;;;10500383;28;20200;-79
2021/06/08 16:06:56;;;;;;;6.00;5.40;;;;;29.50;101612.00;;;;10484103;28;20212;-80
2021/06/08 16:12:10;;;;;;;6.82;6.13;;;;;28.80;101613.00;;;;10501028;28;20197;-80
2021/06/08 16:17:14;;;;;;;7.50;6.72;;;;;28.40;101615.00;;;;10451623;28;20272;-80
2021/06/08 16:22:17;;;;;;;9.15;7.00;;;;;28.30;101617.00;;;;10451010;28;20285;-79
2021/06/08 16:27:19;;;;;;;13.23;8.75;;;;;28.40;101612.00;;;;10485989;28;20317;-79
2021/06/08 16:32:21;;;;;;;10.77;8.02;;;;;28.40;101605.00;;;;10456843;28;20245;-78
2021/06/08 16:37:22;;;;;;;11.88;10.65;;;;;28.10;101606.00;;;;10482455;28;20201;-79
2021/06/08 16:42:24;;;;;;;10.00;9.10;;;;;28.10;101604.00;;;;10466616;28;20199;-80
2021/06/08 16:47:26;;;;;;;13.95;12.52;;;;;28.20;101599.00;;;;10472840;28;20205;-80
2021/06/08 16:57:50;;;;;;;17.88;16.17;;;;;27.60;101597.00;;;;10481167;28;20610;-79
2021/06/08 17:02:53;;;;;;;9.43;7.90;;;;;27.20;101598.00;;;;10450743;28;20196;-79
2021/06/08 17:07:57;;;;;;;10.70;7.60;;;;;26.80;101596.00;;;;10482910;28;20529;-79
2021/06/08 17:12:59;;;;;;;7.57;6.97;;;;;26.60;101595.00;;;;10456382;28;20615;-80
2021/06/08 17:18:01;;;;;;;14.63;13.23;;;;;26.40;101599.00;;;;10491993;28;20864;-79
2021/06/08 17:23:03;;;;;;;9.80;8.57;;;;;26.20;101595.00;;;;10484199;28;20197;-79
2021/06/08 17:28:05;;;;;;;11.40;10.40;;;;;26.00;101599.00;;;;10473493;28;20247;-79
2021/06/08 17:33:09;;;;;;;13.40;12.05;;;;;25.90;101596.00;;;;10484533;28;20233;-79
2021/06/08 17:38:11;;;;;;;15.93;14.38;;;;;25.70;101596.00;;;;10460308;28;20202;-77
2021/06/08 17:43:13;;;;;;;22.77;20.58;;;;;25.30;101596.00;;;;10475250;28;20185;-78
2021/06/08 17:48:15;;;;;;;20.17;18.20;;;;;25.00;101591.00;;;;10475703;28;20209;-77
2021/06/08 17:53:17;;;;;;;18.77;16.63;;;;;24.90;101602.00;;;;10491748;28;20186;-76
2021/06/08 17:58:19;;;;;;;17.77;15.95;;;;;24.80;101601.00;;;;10457262;28;20205;-76
2021/06/08 18:03:21;;;;;;;16.33;14.63;;;;;24.80;101596.00;;;;10491804;28;20284;-78
2021/06/08 18:08:23;;;;;;;15.65;14.02;;;;;24.70;101601.00;;;;10449944;28;20292;-77
2021/06/08 18:13:25;;;;;;;16.65;14.95;;;;;24.50;101597.00;;;;10484645;28;20239;-77
2021/06/08 18:18:38;;;;;;;14.63;11.93;;;;;24.40;101603.00;;;;10442971;28;20185;-76
2021/06/08 18:23:42;;;;;;;16.50;12.57;;;;;24.30;101606.00;;;;10458756;28;20675;-78
2021/06/08 18:28:43;;;;;;;13.98;12.68;;;;;24.10;101603.00;;;;10479195;28;20220;-78
2021/06/08 18:33:46;;;;;;;14.63;13.10;;;;;23.90;101620.00;;;;10473741;28;20232;-78
2021/06/08 18:38:47;;;;;;;14.18;12.88;;;;;23.70;101614.00;;;;10475598;28;20597;-77
2021/06/08 18:43:49;;;;;;;13.90;12.50;;;;;23.70;101615.00;;;;10458019;28;20201;-78
2021/06/08 18:48:52;;;;;;;13.88;12.38;;;;;23.50;101617.00;;;;10453250;28;20216;-78
2021/06/08 18:53:54;;;;;;;13.50;11.15;;;;;23.20;101627.00;;;;10475987;28;20958;-78
2021/06/08 18:58:59;;;;;;;11.52;10.43;;;;;23.00;101626.00;;;;10478247;28;20222;-78
2021/06/08 19:04:01;;;;;;;12.80;11.43;;;;;22.80;101633.00;;;;10462799;28;20200;-78
2021/06/08 19:09:03;;;;;;;13.10;11.75;;;;;22.70;101631.00;;;;10464668;28;20214;-78
2021/06/08 19:14:05;;;;;;;13.48;11.40;;;;;22.80;101636.00;;;;10473706;28;20193;-78
2021/06/08 19:19:07;;;;;;;15.20;11.57;;;;;23.00;101639.00;;;;10494249;28;20185;-78
2021/06/08 19:24:09;;;;;;;13.35;11.95;;;;;22.70;101649.00;;;;10484657;28;20193;-78
2021/06/08 19:29:12;;;;;;;13.73;12.32;;;;;22.40;101648.00;;;;10456492;28;20569;-78
2021/06/08 19:34:15;;;;;;;15.35;13.55;;;;;22.00;101647.00;;;;10467936;28;20221;-78
2021/06/08 19:39:17;;;;;;;14.00;12.63;;;;;21.70;101653.00;;;;10469528;28;20265;-78
2021/06/08 19:44:18;;;;;;;15.05;13.27;;;;;21.40;101653.00;;;;10468011;28;20228;-78
2021/06/08 19:49:24;;;;;;;15.02;13.48;;;;;21.10;101656.00;;;;10435650;28;20214;-78
2021/06/08 19:54:26;;;;;;;14.05;12.13;;;;;20.90;101663.00;;;;10461628;28;20210;-77
2021/06/08 19:59:28;;;;;;;16.15;12.43;;;;;20.60;101663.00;;;;10467707;28;20732;-78
2021/06/08 20:04:32;;;;;;;15.80;12.75;;;;;20.40;101667.00;;;;10441460;28;20197;-78
2021/06/08 20:09:33;;;;;;;16.27;12.60;;;;;20.20;101676.00;;;;10471204;28;20213;-77
2021/06/08 20:14:36;;;;;;;13.40;12.00;;;;;20.00;101679.00;;;;10460979;28;20198;-78
2021/06/08 20:19:38;;;;;;;12.95;10.90;;;;;19.80;101688.00;;;;10449979;28;20208;-79
2021/06/08 20:24:40;;;;;;;14.25;11.07;;;;;19.60;101693.00;;;;10480559;28;20202;-77
2021/06/08 20:29:43;;;;;;;13.18;10.50;;;;;19.60;101710.00;;;;10505176;28;20292;-78
2021/06/08 20:34:45;;;;;;;11.68;10.52;;;;;19.50;101716.00;;;;10490060;28;20262;-79
2021/06/08 20:39:47;;;;;;;11.18;9.85;;;;;19.40;101713.00;;;;10487388;28;20296;-78
2021/06/08 20:44:49;;;;;;;11.63;10.05;;;;;19.30;101727.00;;;;10476014;28;20399;-78
2021/06/08 20:49:51;;;;;;;11.82;9.85;;;;;19.20;101730.00;;;;10503986;28;20205;-78
2021/06/08 20:54:53;;;;;;;13.23;9.60;;;;;19.10;101732.00;;;;10474413;28;20198;-76
2021/06/08 20:59:55;;;;;;;12.63;9.35;;;;;19.00;101734.00;;;;10432897;28;20200;-79
2021/06/08 21:04:57;;;;;;;10.18;8.95;;;;;18.80;101746.00;;;;10453492;28;20202;-79
2021/06/08 21:09:59;;;;;;;10.43;9.18;;;;;18.60;101739.00;;;;10468901;28;20206;-80
2021/06/08 21:15:04;;;;;;;12.40;9.20;;;;;18.50;101751.00;;;;10474034;28;20599;-77
2021/06/08 21:20:07;;;;;;;13.40;9.23;;;;;18.40;101750.00;;;;10466155;28;20190;-78
2021/06/08 21:25:10;;;;;;;10.40;9.10;;;;;18.30;101749.00;;;;10445557;28;20197;-78
2021/06/08 21:30:13;;;;;;;11.95;8.77;;;;;18.20;101753.00;;;;10485444;28;20236;-78
2021/06/08 21:35:16;;;;;;;10.30;9.17;;;;;18.10;101756.00;;;;10457897;28;20222;-78
2021/06/08 21:40:18;;;;;;;13.73;9.17;;;;;18.00;101746.00;;;;10482649;28;20644;-78
2021/06/08 21:45:20;;;;;;;12.93;8.95;;;;;18.00;101750.00;;;;10486331;28;20565;-79
2021/06/08 21:50:22;;;;;;;9.93;8.90;;;;;17.90;101757.00;;;;10489708;28;20206;-78
2021/06/08 21:55:24;;;;;;;10.20;9.03;;;;;17.80;101751.00;;;;10474306;28;20561;-79
2021/06/08 22:00:28;;;;;;;11.17;10.03;;;;;17.70;101757.00;;;;10449600;28;20194;-78
2021/06/08 22:05:30;;;;;;;11.10;9.70;;;;;17.60;101752.00;;;;10448389;28;20247;-78
2021/06/08 22:10:32;;;;;;;11.30;9.97;;;;;17.50;101752.00;;;;10471828;28;20201;-79
2021/06/08 22:15:34;;;;;;;13.40;11.13;;;;;17.40;101759.00;;;;10505710;28;20575;-79
2021/06/08 22:20:36;;;;;;;12.07;10.80;;;;;17.30;101760.00;;;;10463702;28;20190;-78
2021/06/08 22:25:39;;;;;;;11.43;10.23;;;;;17.10;101761.00;;;;10430493;28;20206;-78
2021/06/08 22:30:42;;;;;;;13.47;10.87;;;;;16.90;101759.00;;;;10446811;28;20202;-78
2021/06/08 22:35:44;;;;;;;14.90;11.27;;;;;16.80;101764.00;;;;10462406;28;20226;-78
2021/06/08 22:40:46;;;;;;;14.07;12.53;;;;;16.60;101759.00;;;;10462165;28;20194;-78
2021/06/08 22:45:48;;;;;;;16.67;12.00;;;;;16.50;101759.00;;;;10429165;28;20187;-78
2021/06/08 22:50:50;;;;;;;16.17;12.43;;;;;16.40;101758.00;;;;10463684;28;20228;-78
2021/06/08 22:55:52;;;;;;;18.37;13.73;;;;;16.30;101764.00;;;;10464899;28;20197;-78
2021/06/08 23:00:53;;;;;;;15.77;13.67;;;;;16.20;101767.00;;;;10469770;28;20186;-78
2021/06/08 23:05:55;;;;;;;15.93;14.23;;;;;16.10;101765.00;;;;10503075;28;20189;-78
2021/06/08 23:10:57;;;;;;;16.87;14.87;;;;;16.10;101768.00;;;;10485995;28;20263;-79
2021/06/08 23:15:59;;;;;;;18.13;15.23;;;;;16.00;101769.00;;;;10470826;28;20684;-78
2021/06/08 23:21:01;;;;;;;17.23;14.67;;;;;16.00;101765.00;;;;10487266;28;20710;-78
2021/06/08 23:26:03;;;;;;;18.97;15.17;;;;;15.90;101762.00;;;;10494439;28;20197;-78
2021/06/08 23:31:06;;;;;;;19.47;15.27;;;;;15.90;101759.00;;;;10485163;28;20245;-78
2021/06/08 23:36:08;;;;;;;20.80;16.23;;;;;15.80;101766.00;;;;10484977;28;20240;-78
2021/06/08 23:41:10;;;;;;;19.10;16.43;;;;;15.70;101759.00;;;;10460315;28;20668;-78
2021/06/08 23:46:12;;;;;;;20.77;18.53;;;;;15.70;101760.00;;;;10455589;28;20189;-78
2021/06/08 23:51:14;;;;;;;23.97;18.10;;;;;15.70;101757.00;;;;10470342;28;20218;-78
2021/06/08 23:56:16;;;;;;;20.93;17.70;;;;;15.60;101757.00;;;;10476082;28;20232;-78
